createdAt,value
2018-11-21T00:01:38.893Z,30.20
2018-11-21T00:04:11.337Z,30.43
2018-11-21T00:06:38.563Z,31.73
2018-11-21T00:09:07.562Z,32.77
2018-11-21T00:11:35.057Z,29.90
2018-11-21T00:14:02.308Z,30.23
2018-11-21T00:16:29.630Z,28.83
2018-11-21T00:19:00.793Z,32.27
2018-11-21T00:21:25.304Z,29.00
2018-11-21T00:23:53.726Z,31.87
2018-11-21T00:26:21.044Z,30.80
2018-11-21T00:28:48.841Z,30.60
2018-11-21T00:31:16.011Z,27.50
2018-11-21T00:33:43.311Z,28.63
2018-11-21T00:36:10.588Z,33.30
2018-11-21T00:38:37.766Z,27.70
2018-11-21T00:41:05.021Z,29.13
2018-11-21T00:43:32.641Z,29.93
2018-11-21T00:46:00.584Z,32.10
2018-11-21T00:48:27.934Z,29.57
2018-11-21T00:50:55.213Z,28.47
2018-11-21T00:53:24.150Z,32.07
2018-11-21T00:55:51.561Z,33.30
2018-11-21T00:58:19.344Z,29.57
2018-11-21T01:00:46.621Z,32.80
2018-11-21T01:03:14.130Z,35.10
2018-11-21T01:05:43.243Z,36.47
2018-11-21T01:08:11.981Z,34.23
2018-11-21T01:10:39.232Z,32.90
2018-11-21T01:13:06.447Z,37.47
2018-11-21T01:15:34.692Z,32.00
2018-11-21T01:18:01.826Z,35.10
2018-11-21T01:20:32.152Z,30.20
2018-11-21T01:23:00.845Z,36.83
2018-11-21T01:25:28.212Z,35.63
2018-11-21T01:27:55.569Z,39.90
2018-11-21T01:30:22.992Z,38.83
2018-11-21T01:32:50.422Z,32.43
2018-11-21T01:35:18.252Z,32.17
2018-11-21T01:37:46.465Z,37.40
2018-11-21T01:40:14.143Z,36.40
2018-11-21T01:42:42.331Z,34.70
2018-11-21T01:45:10.077Z,37.63
2018-11-21T01:47:38.201Z,35.17
2018-11-21T01:50:06.939Z,34.80
2018-11-21T01:52:34.416Z,32.30
2018-11-21T01:55:02.707Z,36.07
2018-11-21T01:57:30.528Z,36.43
2018-11-21T01:59:58.356Z,32.60
2018-11-21T02:02:27.629Z,36.73
2018-11-21T02:04:55.521Z,37.43
2018-11-21T02:07:23.471Z,42.23
2018-11-21T02:09:50.767Z,36.93
2018-11-21T02:12:18.005Z,41.30
2018-11-21T02:14:45.649Z,32.23
2018-11-21T02:17:14.730Z,34.80
2018-11-21T02:19:41.976Z,35.83
2018-11-21T02:22:12.703Z,36.60
2018-11-21T02:24:43.268Z,33.97
2018-11-21T02:27:10.934Z,37.83
2018-11-21T02:29:38.798Z,38.17
2018-11-21T02:32:06.350Z,33.20
2018-11-21T02:34:34.860Z,37.83
2018-11-21T02:37:02.093Z,35.63
2018-11-21T02:39:29.876Z,35.60
2018-11-21T02:41:57.402Z,35.53
2018-11-21T02:46:59.901Z,38.43
2018-11-21T02:49:27.116Z,35.50
2018-11-21T02:51:54.463Z,38.77
2018-11-21T02:54:21.975Z,38.03
2018-11-21T02:57:14.850Z,37.50
2018-11-21T02:59:42.205Z,40.47
2018-11-21T03:02:09.569Z,38.60
2018-11-21T03:04:36.886Z,36.30
2018-11-21T03:07:04.315Z,43.10
2018-11-21T03:09:32.131Z,40.40
2018-11-21T03:11:59.461Z,33.77
2018-11-21T03:14:27.197Z,37.47
2018-11-21T03:16:55.620Z,36.77
2018-11-21T03:19:23.064Z,34.43
2018-11-21T03:21:50.952Z,42.40
2018-11-21T03:24:18.314Z,37.93
2018-11-21T03:26:45.525Z,36.83
2018-11-21T03:29:13.937Z,38.37
2018-11-21T03:31:41.259Z,38.40
2018-11-21T03:34:08.789Z,37.60
2018-11-21T03:36:36.286Z,35.20
2018-11-21T03:39:07.720Z,38.70
2018-11-21T03:41:34.892Z,37.43
2018-11-21T03:44:07.904Z,35.83
2018-11-21T03:46:45.796Z,43.60
2018-11-21T03:49:14.103Z,38.33
2018-11-21T03:51:42.607Z,36.77
2018-11-21T03:54:10.376Z,35.97
2018-11-21T03:56:38.242Z,42.00
2018-11-21T03:59:06.102Z,34.83
2018-11-21T04:01:33.385Z,39.70
2018-11-21T04:04:01.359Z,42.83
2018-11-21T04:06:28.950Z,40.27
2018-11-21T04:08:56.394Z,40.33
2018-11-21T04:11:23.758Z,39.70
2018-11-21T04:13:51.488Z,41.63
2018-11-21T04:16:18.909Z,39.27
2018-11-21T04:18:52.574Z,38.90
2018-11-21T04:21:21.399Z,45.63
2018-11-21T04:23:49.171Z,40.13
2018-11-21T04:26:19.318Z,38.07
2018-11-21T04:28:46.802Z,39.60
2018-11-21T04:31:14.936Z,36.10
2018-11-21T04:33:42.141Z,39.80
2018-11-21T04:36:09.406Z,43.40
2018-11-21T04:38:39.613Z,36.73
2018-11-21T04:41:08.024Z,41.30
2018-11-21T04:43:36.460Z,44.20
2018-11-21T04:48:55.404Z,42.20
2018-11-21T04:51:23.110Z,44.10
2018-11-21T04:53:50.341Z,51.40
2018-11-21T04:56:17.728Z,44.77
2018-11-21T04:58:46.184Z,42.33
2018-11-21T05:01:13.455Z,38.77
2018-11-21T05:03:57.730Z,44.63
2018-11-21T05:06:26.316Z,40.00
2018-11-21T05:08:54.170Z,44.07
2018-11-21T05:11:21.727Z,38.87
2018-11-21T05:13:50.136Z,39.50
2018-11-21T05:16:17.543Z,39.13
2018-11-21T05:18:45.645Z,57.37
2018-11-21T05:21:13.171Z,41.97
2018-11-21T05:23:40.414Z,42.07
2018-11-21T05:26:07.951Z,38.83
2018-11-21T05:28:36.698Z,42.10
2018-11-21T05:31:04.924Z,40.73
2018-11-21T05:33:36.285Z,43.20
2018-11-21T05:36:04.611Z,45.30
2018-11-21T05:38:32.521Z,40.77
2018-11-21T05:40:59.697Z,38.10
2018-11-21T05:43:38.269Z,45.10
2018-11-21T05:46:06.214Z,40.20
2018-11-21T05:48:34.147Z,37.23
2018-11-21T05:51:01.495Z,36.80
2018-11-21T05:53:28.931Z,37.50
2018-11-21T05:55:56.583Z,41.27
2018-11-21T05:58:23.961Z,37.23
2018-11-21T06:00:51.372Z,37.80
2018-11-21T06:03:19.157Z,41.83
2018-11-21T06:05:46.970Z,42.40
2018-11-21T06:08:15.137Z,37.37
2018-11-21T06:10:42.399Z,33.80
2018-11-21T06:13:09.721Z,38.03
2018-11-21T06:15:36.976Z,37.37
2018-11-21T06:18:09.339Z,36.90
2018-11-21T06:20:35.321Z,41.60
2018-11-21T06:23:02.993Z,34.37
2018-11-21T06:25:31.365Z,36.73
2018-11-21T06:27:59.415Z,38.67
2018-11-21T06:30:27.210Z,33.27
2018-11-21T06:32:59.894Z,40.10
2018-11-21T06:35:29.269Z,36.10
2018-11-21T06:37:57.751Z,37.30
2018-11-21T06:40:27.315Z,36.13
2018-11-21T06:42:57.294Z,38.13
2018-11-21T06:45:29.750Z,35.77
2018-11-21T06:47:57.070Z,34.40
2018-11-21T06:50:24.387Z,37.30
2018-11-21T06:52:52.575Z,37.67
2018-11-21T06:55:20.174Z,35.10
2018-11-21T06:57:48.029Z,31.63
2018-11-21T07:00:16.455Z,38.00
2018-11-21T07:02:44.269Z,36.80
2018-11-21T07:05:11.963Z,37.73
2018-11-21T07:07:39.883Z,34.07
2018-11-21T07:10:10.014Z,37.33
2018-11-21T07:12:37.386Z,37.80
2018-11-21T07:15:09.275Z,35.33
2018-11-21T07:17:36.699Z,33.53
2018-11-21T07:20:06.539Z,44.77
2018-11-21T07:22:33.950Z,31.33
2018-11-21T07:25:01.300Z,35.47
2018-11-21T07:27:38.375Z,38.17
2018-11-21T07:30:08.358Z,36.27
2018-11-21T07:32:36.863Z,34.33
2018-11-21T07:35:04.182Z,37.27
2018-11-21T07:37:31.415Z,30.97
2018-11-21T07:39:58.654Z,31.97
2018-11-21T07:42:27.065Z,35.53
2018-11-21T07:44:53.498Z,32.60
2018-11-21T07:47:26.573Z,33.93
2018-11-21T07:49:48.588Z,30.40
2018-11-21T07:52:15.867Z,32.57
2018-11-21T07:54:43.196Z,32.90
2018-11-21T07:57:29.349Z,32.63
2018-11-21T08:01:02.880Z,29.90
2018-11-21T08:03:32.279Z,32.00
2018-11-21T08:06:03.327Z,37.80
2018-11-21T08:08:52.716Z,32.27
2018-11-21T08:11:43.212Z,35.97
2018-11-21T08:14:23.822Z,34.80
2018-11-21T08:17:09.285Z,32.70
2018-11-21T08:19:47.140Z,33.40
2018-11-21T08:22:32.978Z,32.50
2018-11-21T08:25:15.723Z,33.93
2018-11-21T08:28:08.909Z,33.97
2018-11-21T08:30:36.196Z,32.70
2018-11-21T08:33:03.543Z,34.90
2018-11-21T08:35:32.539Z,32.20
2018-11-21T08:37:59.523Z,39.60
2018-11-21T08:40:26.751Z,35.47
2018-11-21T08:42:54.978Z,30.20
2018-11-21T08:45:22.488Z,34.27
2018-11-21T08:47:49.768Z,30.57
2018-11-21T08:50:17.765Z,37.53
2018-11-21T08:52:45.020Z,28.90
2018-11-21T08:55:12.421Z,32.20
2018-11-21T08:57:39.988Z,32.20
2018-11-21T09:00:09.954Z,30.63
2018-11-21T09:02:37.996Z,32.80
2018-11-21T09:05:08.036Z,33.83
2018-11-21T09:07:36.624Z,34.67
2018-11-21T09:10:06.640Z,28.77
2018-11-21T09:12:34.801Z,26.43
2018-11-21T09:15:11.097Z,29.10
2018-11-21T09:17:42.327Z,31.50
2018-11-21T09:20:12.290Z,31.50
2018-11-21T09:22:43.802Z,27.53
2018-11-21T09:25:11.899Z,36.10
2018-11-21T09:27:40.846Z,27.73
2018-11-21T09:30:10.598Z,25.93
2018-11-21T09:32:41.972Z,31.70
2018-11-21T09:35:11.614Z,47.10
2018-11-21T09:37:40.673Z,33.63
2018-11-21T09:40:10.459Z,31.80
2018-11-21T09:42:46.594Z,26.67
2018-11-21T09:45:16.849Z,28.80
2018-11-21T09:47:44.634Z,29.77
2018-11-21T09:50:14.908Z,26.93
2018-11-21T09:52:42.330Z,35.43
2018-11-21T09:55:11.383Z,28.80
2018-11-21T09:57:42.404Z,26.00
2018-11-21T10:00:49.179Z,26.03
2018-11-21T10:03:19.230Z,30.63
2018-11-21T10:05:52.489Z,23.50
2018-11-21T10:08:49.128Z,26.60
2018-11-21T10:11:17.434Z,23.63
2018-11-21T10:13:45.190Z,21.20
2018-11-21T10:16:14.515Z,22.33
2018-11-21T10:18:46.934Z,22.47
2018-11-21T10:21:19.026Z,18.27
2018-11-21T10:23:46.651Z,18.40
2018-11-21T10:26:13.871Z,18.13
2018-11-21T10:28:43.304Z,23.53
2018-11-21T10:31:10.836Z,15.73
2018-11-21T10:33:38.149Z,21.83
2018-11-21T10:36:06.668Z,17.33
2018-11-21T10:38:34.115Z,17.03
2018-11-21T10:41:04.197Z,16.43
2018-11-21T10:43:42.075Z,14.80
2018-11-21T10:46:09.995Z,19.30
2018-11-21T10:50:11.391Z,15.43
2018-11-21T10:52:40.633Z,16.97
2018-11-21T11:03:05.504Z,15.00
2018-11-21T11:08:33.226Z,16.30
2018-11-21T11:14:09.713Z,14.47
2018-11-21T11:24:56.955Z,14.37
2018-11-21T11:35:48.546Z,17.03
2018-11-21T11:38:36.683Z,12.37
2018-11-21T11:44:14.958Z,12.83
2018-11-21T11:49:16.364Z,13.87
2018-11-21T11:52:14.193Z,11.40
2018-11-21T11:57:38.041Z,19.50
2018-11-21T12:00:22.690Z,14.10
2018-11-21T12:03:10.446Z,16.80
2018-11-21T12:10:46.268Z,14.27
2018-11-21T12:18:41.585Z,13.33
2018-11-21T12:23:58.672Z,13.07
2018-11-21T12:26:37.680Z,12.30
2018-11-21T12:31:58.855Z,14.47
2018-11-21T12:34:46.909Z,14.43
2018-11-21T12:40:08.268Z,13.93
2018-11-21T12:45:12.758Z,17.70
2018-11-21T12:48:16.595Z,14.17
2018-11-21T12:51:28.426Z,17.23
2018-11-21T13:23:23.185Z,13.37
2018-11-21T13:26:09.876Z,12.47
2018-11-21T13:31:32.097Z,14.67
2018-11-21T13:34:22.922Z,13.10
2018-11-21T13:37:12.832Z,15.30
2018-11-21T13:39:59.409Z,14.30
2018-11-21T13:42:46.459Z,14.13
2018-11-21T13:45:16.736Z,14.97
2018-11-21T13:48:19.965Z,14.60
2018-11-21T13:50:49.938Z,14.57
2018-11-21T13:53:38.368Z,19.43
2018-11-21T14:01:22.488Z,14.27
2018-11-21T14:03:52.181Z,10.70
2018-11-21T14:06:21.455Z,22.87
2018-11-21T14:08:51.141Z,12.03
2018-11-21T14:11:20.331Z,11.60
2018-11-21T14:16:20.473Z,12.03
2018-11-21T14:18:49.990Z,12.73
2018-11-21T14:21:19.233Z,12.67
2018-11-21T14:23:50.195Z,12.60
2018-11-21T14:26:19.690Z,10.63
2018-11-21T14:28:48.780Z,13.20
2018-11-21T14:33:49.544Z,13.10
2018-11-21T14:36:19.047Z,10.63
2018-11-21T14:38:48.666Z,12.13
2018-11-21T14:41:18.937Z,9.93
2018-11-21T14:43:52.284Z,11.97
2018-11-21T14:46:22.419Z,14.00
2018-11-21T14:48:52.465Z,16.70
2018-11-21T14:54:02.695Z,11.53
2018-11-21T14:59:06.539Z,9.27
2018-11-21T15:09:32.959Z,12.30
2018-11-21T15:12:02.213Z,14.93
2018-11-21T15:14:32.916Z,11.40
2018-11-21T15:17:02.159Z,11.90
2018-11-21T15:24:32.418Z,8.70
2018-11-21T15:27:02.012Z,8.87
2018-11-21T15:29:32.460Z,9.57
2018-11-21T15:32:02.067Z,11.93
2018-11-21T15:34:31.195Z,10.17
2018-11-21T15:39:36.114Z,11.50
2018-11-21T15:42:05.645Z,9.90
2018-11-21T15:47:05.566Z,11.10
2018-11-21T15:49:34.926Z,10.80
2018-11-21T15:52:04.643Z,12.83
2018-11-21T15:54:33.746Z,10.57
2018-11-21T15:59:44.534Z,11.37
2018-11-21T16:02:13.658Z,13.10
2018-11-21T16:07:20.105Z,12.10
2018-11-21T16:12:19.980Z,10.57
2018-11-21T16:17:19.345Z,10.80
2018-11-21T16:19:49.362Z,11.43
2018-11-21T16:22:18.597Z,7.63
2018-11-21T16:24:48.018Z,10.37
2018-11-21T16:27:17.510Z,11.20
2018-11-21T16:29:46.777Z,11.80
2018-11-21T16:32:16.614Z,12.37
2018-11-21T16:34:44.395Z,11.03
2018-11-21T16:37:13.819Z,12.90
2018-11-21T16:39:43.367Z,21.27
2018-11-21T16:42:12.664Z,15.90
2018-11-21T16:44:41.890Z,15.63
2018-11-21T16:47:13.920Z,20.50
2018-11-21T16:49:43.495Z,20.63
2018-11-21T16:52:15.411Z,20.00
2018-11-21T16:57:16.968Z,14.17
2018-11-21T16:59:46.348Z,15.00
2018-11-21T17:02:15.403Z,17.83
2018-11-21T17:04:44.846Z,15.13
2018-11-21T17:09:45.997Z,15.20
2018-11-21T17:12:15.961Z,16.93
2018-11-21T17:14:45.176Z,12.37
2018-11-21T17:17:14.769Z,14.00
2018-11-21T17:19:44.057Z,15.97
2018-11-21T17:22:13.643Z,16.80
2018-11-21T17:24:43.338Z,12.90
2018-11-21T17:27:12.987Z,13.87
2018-11-21T17:29:53.674Z,14.37
2018-11-21T17:34:44.066Z,14.70
2018-11-21T17:37:13.582Z,15.47
2018-11-21T17:39:42.725Z,14.30
2018-11-21T17:42:13.343Z,12.20
2018-11-21T17:44:42.708Z,11.23
2018-11-21T17:52:28.817Z,13.80
2018-11-21T17:54:57.876Z,17.43
2018-11-21T18:05:23.184Z,16.87
2018-11-21T18:21:09.331Z,20.50
2018-11-21T18:31:34.806Z,22.23
2018-11-21T18:34:04.044Z,19.83
2018-11-21T18:39:14.364Z,30.60
2018-11-21T18:41:44.782Z,20.87
2018-11-21T19:08:07.123Z,18.23
2018-11-21T19:40:02.187Z,16.50
2018-11-21T19:45:14.834Z,27.77
2018-11-21T19:47:44.135Z,19.67
2018-11-21T20:30:23.345Z,23.70
2018-11-21T20:35:34.330Z,25.23
2018-11-21T20:38:03.871Z,26.37
2018-11-21T20:50:56.471Z,26.57
2018-11-21T20:53:25.546Z,27.47
2018-11-21T20:55:54.807Z,23.63
2018-11-21T20:58:23.853Z,24.17
2018-11-21T21:00:52.922Z,24.07
2018-11-21T21:03:22.450Z,20.50
2018-11-21T21:11:11.739Z,25.83
2018-11-21T21:16:14.090Z,22.53
2018-11-21T21:21:20.619Z,23.17
2018-11-21T21:26:21.378Z,27.60
2018-11-21T21:28:52.738Z,25.53
2018-11-21T21:31:22.338Z,24.83
2018-11-21T21:33:52.111Z,26.50
2018-11-21T21:36:22.143Z,22.80
2018-11-21T21:41:33.913Z,27.03
2018-11-21T21:46:34.730Z,25.70
2018-11-21T21:49:05.147Z,28.00
2018-11-21T21:51:34.276Z,25.80
2018-11-21T21:56:46.331Z,31.07
2018-11-21T21:59:13.108Z,27.30
2018-11-21T22:01:42.360Z,26.27
2018-11-21T22:04:11.394Z,27.67
2018-11-21T22:09:13.615Z,32.40
2018-11-21T22:11:43.005Z,32.90
2018-11-21T22:16:49.405Z,31.63
2018-11-21T22:19:18.474Z,32.43
2018-11-21T22:21:47.786Z,31.93
2018-11-21T22:24:17.761Z,32.53
2018-11-21T22:29:17.221Z,32.20
2018-11-21T22:34:13.145Z,37.53
2018-11-21T22:41:49.191Z,34.50
2018-11-21T22:44:18.473Z,37.37
2018-11-21T22:51:52.977Z,39.30
2018-11-21T22:54:22.145Z,38.37
2018-11-21T22:56:51.537Z,40.10
2018-11-21T23:01:52.796Z,44.30
2018-11-21T23:04:21.880Z,42.83
2018-11-21T23:06:50.875Z,41.60
2018-11-21T23:09:20.080Z,45.07
2018-11-21T23:11:49.483Z,40.47
2018-11-21T23:19:25.346Z,36.43
2018-11-21T23:21:55.181Z,46.47
2018-11-21T23:24:24.168Z,41.17
2018-11-21T23:26:53.529Z,45.80
2018-11-21T23:31:54.965Z,44.73
2018-11-21T23:34:23.965Z,43.00
2018-11-21T23:36:53.014Z,43.00
2018-11-21T23:39:22.128Z,42.73
2018-11-21T23:41:51.100Z,44.63
2018-11-21T23:44:20.115Z,45.47
2018-11-21T23:52:08.126Z,51.83
2018-11-21T23:54:38.426Z,44.93
2018-11-21T23:57:16.092Z,41.80
2018-11-21T23:59:36.677Z,53.57
